sensor_id;sensor_type;location;lat;lon;timestamp;pressure;altitude;pressure_sealevel;temperature;humidity
11413;BME280;5762;43.256;26.960;2023-09-19T00:01:41;99895.34;;;14.26;100.00
11413;BME280;5762;43.256;26.960;2023-09-19T00:04:10;99893.56;;;14.21;100.00
11413;BME280;5762;43.256;26.960;2023-09-19T00:06:39;99898.22;;;14.12;100.00
11413;BME280;5762;43.256;26.960;2023-09-19T00:09:08;99901.23;;;14.02;100.00
11413;BME280;5762;43.256;26.960;2023-09-19T00:11:37;99903.37;;;13.94;100.00
11413;BME280;5762;43.256;26.960;2023-09-19T00:14:05;99903.37;;;13.85;100.00
11413;BME280;5762;43.256;26.960;2023-09-19T00:16:34;99908.46;;;13.78;100.00
11413;BME280;5762;43.256;26.960;2023-09-19T00:19:03;99910.27;;;13.71;100.00
11413;BME280;5762;43.256;26.960;2023-09-19T00:21:33;99913.44;;;13.65;100.00
11413;BME280;5762;43.256;26.960;2023-09-19T00:24:02;99908.63;;;13.62;100.00
11413;BME280;5762;43.256;26.960;2023-09-19T00:26:36;99901.09;;;13.59;100.00
11413;BME280;5762;43.256;26.960;2023-09-19T00:29:01;99907.78;;;13.53;100.00
11413;BME280;5762;43.256;26.960;2023-09-19T00:31:29;99901.77;;;13.45;100.00
11413;BME280;5762;43.256;26.960;2023-09-19T00:33:58;99907.70;;;13.47;100.00
11413;BME280;5762;43.256;26.960;2023-09-19T00:36:27;99906.10;;;13.46;100.00
11413;BME280;5762;43.256;26.960;2023-09-19T00:38:56;99912.11;;;13.54;100.00
11413;BME280;5762;43.256;26.960;2023-09-19T00:41:25;99913.95;;;13.56;100.00
11413;BME280;5762;43.256;26.960;2023-09-19T00:43:53;99908.77;;;13.57;100.00
11413;BME280;5762;43.256;26.960;2023-09-19T00:46:22;99912.53;;;13.58;100.00
11413;BME280;5762;43.256;26.960;2023-09-19T00:48:51;99919.02;;;13.60;100.00
11413;BME280;5762;43.256;26.960;2023-09-19T00:51:20;99921.67;;;13.62;100.00
11413;BME280;5762;43.256;26.960;2023-09-19T00:53:51;99914.14;;;13.59;100.00
11413;BME280;5762;43.256;26.960;2023-09-19T00:56:19;99920.13;;;13.59;100.00
11413;BME280;5762;43.256;26.960;2023-09-19T00:58:48;99920.27;;;13.54;100.00
11413;BME280;5762;43.256;26.960;2023-09-19T01:01:17;99922.23;;;13.62;100.00
11413;BME280;5762;43.256;26.960;2023-09-19T01:03:46;99924.67;;;13.72;100.00
11413;BME280;5762;43.256;26.960;2023-09-19T01:06:15;99924.53;;;13.77;100.00
11413;BME280;5762;43.256;26.960;2023-09-19T01:08:44;99924.16;;;13.81;100.00
11413;BME280;5762;43.256;26.960;2023-09-19T01:11:19;99924.33;;;13.85;100.00
11413;BME280;5762;43.256;26.960;2023-09-19T01:14:02;99921.05;;;13.85;100.00
11413;BME280;5762;43.256;26.960;2023-09-19T01:16:42;99915.92;;;13.92;100.00
11413;BME280;5762;43.256;26.960;2023-09-19T01:27:58;99910.88;;;14.25;100.00
11413;BME280;5762;43.256;26.960;2023-09-19T01:29:34;99911.61;;;14.37;100.00
11413;BME280;5762;43.256;26.960;2023-09-19T01:32:04;99907.17;;;14.50;100.00
11413;BME280;5762;43.256;26.960;2023-09-19T01:37:19;99899.39;;;14.71;100.00
11413;BME280;5762;43.256;26.960;2023-09-19T01:39:58;99896.50;;;14.77;100.00
11413;BME280;5762;43.256;26.960;2023-09-19T01:42:37;99899.55;;;14.84;100.00
11413;BME280;5762;43.256;26.960;2023-09-19T01:45:07;99896.10;;;14.81;100.00
11413;BME280;5762;43.256;26.960;2023-09-19T01:47:41;99892.58;;;14.71;100.00
11413;BME280;5762;43.256;26.960;2023-09-19T01:50:11;99884.67;;;14.55;100.00
11413;BME280;5762;43.256;26.960;2023-09-19T01:52:38;99889.19;;;14.40;100.00
11413;BME280;5762;43.256;26.960;2023-09-19T01:55:07;99893.82;;;14.14;100.00
11413;BME280;5762;43.256;26.960;2023-09-19T01:57:40;99898.31;;;13.81;100.00
11413;BME280;5762;43.256;26.960;2023-09-19T02:00:06;99900.16;;;13.63;100.00
11413;BME280;5762;43.256;26.960;2023-09-19T02:02:38;99908.52;;;13.56;100.00
11413;BME280;5762;43.256;26.960;2023-09-19T02:05:07;99920.94;;;13.59;100.00
11413;BME280;5762;43.256;26.960;2023-09-19T02:07:36;99910.48;;;13.64;100.00
11413;BME280;5762;43.256;26.960;2023-09-19T02:10:06;99908.98;;;13.69;100.00
11413;BME280;5762;43.256;26.960;2023-09-19T02:12:35;99915.71;;;13.71;100.00
11413;BME280;5762;43.256;26.960;2023-09-19T02:15:04;99918.75;;;13.70;100.00
11413;BME280;5762;43.256;26.960;2023-09-19T02:17:34;99918.39;;;13.63;100.00
11413;BME280;5762;43.256;26.960;2023-09-19T02:20:02;99917.77;;;13.66;100.00
11413;BME280;5762;43.256;26.960;2023-09-19T02:22:31;99915.19;;;13.61;100.00
11413;BME280;5762;43.256;26.960;2023-09-19T02:25:00;99917.10;;;13.60;100.00
11413;BME280;5762;43.256;26.960;2023-09-19T02:27:29;99913.33;;;13.59;100.00
11413;BME280;5762;43.256;26.960;2023-09-19T02:29:58;99911.53;;;13.65;100.00
11413;BME280;5762;43.256;26.960;2023-09-19T02:32:27;99916.27;;;13.71;100.00
11413;BME280;5762;43.256;26.960;2023-09-19T02:34:57;99915.92;;;13.64;100.00
11413;BME280;5762;43.256;26.960;2023-09-19T02:37:25;99912.35;;;13.55;100.00
11413;BME280;5762;43.256;26.960;2023-09-19T02:39:54;99907.95;;;13.48;100.00
11413;BME280;5762;43.256;26.960;2023-09-19T02:42:23;99901.64;;;13.50;100.00
11413;BME280;5762;43.256;26.960;2023-09-19T02:44:52;99903.63;;;13.47;100.00
11413;BME280;5762;43.256;26.960;2023-09-19T02:47:21;99902.28;;;13.35;100.00
11413;BME280;5762;43.256;26.960;2023-09-19T02:49:50;99902.64;;;13.43;100.00
11413;BME280;5762;43.256;26.960;2023-09-19T02:52:19;99898.45;;;13.36;100.00
11413;BME280;5762;43.256;26.960;2023-09-19T02:54:47;99896.47;;;13.39;100.00
11413;BME280;5762;43.256;26.960;2023-09-19T02:57:17;99900.06;;;13.37;100.00
11413;BME280;5762;43.256;26.960;2023-09-19T02:59:46;99898.58;;;13.31;100.00
11413;BME280;5762;43.256;26.960;2023-09-19T03:02:15;99903.10;;;13.25;100.00
11413;BME280;5762;43.256;26.960;2023-09-19T03:04:44;99900.64;;;13.15;100.00
11413;BME280;5762;43.256;26.960;2023-09-19T03:07:13;99892.31;;;13.00;100.00
11413;BME280;5762;43.256;26.960;2023-09-19T03:09:42;99887.25;;;12.96;100.00
11413;BME280;5762;43.256;26.960;2023-09-19T03:12:14;99892.38;;;12.97;100.00
11413;BME280;5762;43.256;26.960;2023-09-19T03:14:43;99890.89;;;13.02;100.00
11413;BME280;5762;43.256;26.960;2023-09-19T03:17:11;99889.77;;;13.03;100.00
11413;BME280;5762;43.256;26.960;2023-09-19T03:19:40;99885.20;;;13.01;100.00
11413;BME280;5762;43.256;26.960;2023-09-19T03:22:08;99887.24;;;13.07;100.00
11413;BME280;5762;43.256;26.960;2023-09-19T03:24:37;99881.56;;;13.06;100.00
11413;BME280;5762;43.256;26.960;2023-09-19T03:27:06;99886.31;;;13.00;100.00
11413;BME280;5762;43.256;26.960;2023-09-19T03:29:36;99881.63;;;12.92;100.00
11413;BME280;5762;43.256;26.960;2023-09-19T03:32:05;99885.20;;;12.90;100.00
11413;BME280;5762;43.256;26.960;2023-09-19T03:34:33;99879.59;;;12.87;100.00
11413;BME280;5762;43.256;26.960;2023-09-19T03:37:02;99880.77;;;12.94;100.00
11413;BME280;5762;43.256;26.960;2023-09-19T03:39:35;99875.14;;;12.91;100.00
11413;BME280;5762;43.256;26.960;2023-09-19T03:42:00;99878.97;;;12.90;100.00
11413;BME280;5762;43.256;26.960;2023-09-19T03:44:30;99868.54;;;12.83;100.00
11413;BME280;5762;43.256;26.960;2023-09-19T03:46:59;99873.66;;;12.85;100.00
11413;BME280;5762;43.256;26.960;2023-09-19T03:49:28;99870.70;;;12.84;100.00
11413;BME280;5762;43.256;26.960;2023-09-19T03:51:57;99871.13;;;12.88;100.00
11413;BME280;5762;43.256;26.960;2023-09-19T03:54:26;99875.20;;;12.88;100.00
11413;BME280;5762;43.256;26.960;2023-09-19T03:56:55;99874.53;;;12.94;100.00
11413;BME280;5762;43.256;26.960;2023-09-19T03:59:24;99872.05;;;12.95;100.00
11413;BME280;5762;43.256;26.960;2023-09-19T04:01:52;99875.64;;;12.93;100.00
11413;BME280;5762;43.256;26.960;2023-09-19T04:04:22;99875.14;;;12.91;100.00
11413;BME280;5762;43.256;26.960;2023-09-19T04:06:51;99875.14;;;12.91;100.00
11413;BME280;5762;43.256;26.960;2023-09-19T04:09:20;99874.66;;;12.89;100.00
11413;BME280;5762;43.256;26.960;2023-09-19T04:11:49;99878.84;;;12.95;100.00
11413;BME280;5762;43.256;26.960;2023-09-19T04:14:18;99882.37;;;12.95;100.00
11413;BME280;5762;43.256;26.960;2023-09-19T04:16:46;99878.97;;;13.01;100.00
11413;BME280;5762;43.256;26.960;2023-09-19T04:19:15;99877.73;;;13.07;100.00
11413;BME280;5762;43.256;26.960;2023-09-19T04:21:46;99890.64;;;13.13;100.00
11413;BME280;5762;43.256;26.960;2023-09-19T04:24:14;99882.91;;;13.17;100.00
11413;BME280;5762;43.256;26.960;2023-09-19T04:26:43;99881.11;;;13.24;100.00
11413;BME280;5762;43.256;26.960;2023-09-19T04:29:12;99890.61;;;13.35;100.00
11413;BME280;5762;43.256;26.960;2023-09-19T04:31:41;99888.61;;;13.49;100.00
11413;BME280;5762;43.256;26.960;2023-09-19T04:34:11;99885.52;;;13.62;100.00
11413;BME280;5762;43.256;26.960;2023-09-19T04:36:46;99882.90;;;13.68;100.00
11413;BME280;5762;43.256;26.960;2023-09-19T04:39:16;99877.49;;;13.77;100.00
11413;BME280;5762;43.256;26.960;2023-09-19T04:41:45;99875.02;;;13.86;100.00
11413;BME280;5762;43.256;26.960;2023-09-19T04:44:14;99876.96;;;13.94;100.00
11413;BME280;5762;43.256;26.960;2023-09-19T04:46:43;99875.41;;;14.11;100.00
11413;BME280;5762;43.256;26.960;2023-09-19T04:49:12;99875.55;;;14.23;100.00
11413;BME280;5762;43.256;26.960;2023-09-19T04:51:42;99876.22;;;14.37;100.00
11413;BME280;5762;43.256;26.960;2023-09-19T04:54:10;99880.09;;;14.45;100.00
11413;BME280;5762;43.256;26.960;2023-09-19T04:56:40;99882.50;;;14.46;100.00
11413;BME280;5762;43.256;26.960;2023-09-19T04:59:08;99874.02;;;14.48;100.00
11413;BME280;5762;43.256;26.960;2023-09-19T05:01:37;99879.62;;;14.43;100.00
11413;BME280;5762;43.256;26.960;2023-09-19T05:04:06;99877.86;;;14.47;100.00
11413;BME280;5762;43.256;26.960;2023-09-19T05:06:35;99879.67;;;14.57;100.00
11413;BME280;5762;43.256;26.960;2023-09-19T05:09:04;99876.31;;;14.60;100.00
11413;BME280;5762;43.256;26.960;2023-09-19T05:11:33;99873.52;;;14.63;100.00
11413;BME280;5762;43.256;26.960;2023-09-19T05:14:02;99870.87;;;14.60;100.00
11413;BME280;5762;43.256;26.960;2023-09-19T05:16:30;99869.74;;;14.70;100.00
11413;BME280;5762;43.256;26.960;2023-09-19T05:19:00;99861.24;;;14.80;100.00
11413;BME280;5762;43.256;26.960;2023-09-19T05:21:28;99862.40;;;14.94;100.00
11413;BME280;5762;43.256;26.960;2023-09-19T05:23:57;99862.28;;;15.14;100.00
11413;BME280;5762;43.256;26.960;2023-09-19T05:26:26;99869.42;;;15.35;100.00
11413;BME280;5762;43.256;26.960;2023-09-19T05:28:55;99868.94;;;15.33;100.00
11413;BME280;5762;43.256;26.960;2023-09-19T05:31:23;99865.23;;;15.38;100.00
11413;BME280;5762;43.256;26.960;2023-09-19T05:33:52;99859.70;;;15.40;100.00
11413;BME280;5762;43.256;26.960;2023-09-19T05:36:21;99867.38;;;15.47;100.00
11413;BME280;5762;43.256;26.960;2023-09-19T05:38:50;99872.74;;;15.58;100.00
11413;BME280;5762;43.256;26.960;2023-09-19T05:41:19;99861.28;;;15.65;100.00
11413;BME280;5762;43.256;26.960;2023-09-19T05:43:53;99859.69;;;15.64;100.00
11413;BME280;5762;43.256;26.960;2023-09-19T05:46:17;99858.43;;;15.76;100.00
11413;BME280;5762;43.256;26.960;2023-09-19T05:48:46;99862.78;;;15.98;100.00
11413;BME280;5762;43.256;26.960;2023-09-19T05:51:15;99857.78;;;16.15;100.00
11413;BME280;5762;43.256;26.960;2023-09-19T05:53:43;99852.06;;;16.28;100.00
11413;BME280;5762;43.256;26.960;2023-09-19T05:56:12;99844.28;;;16.45;100.00
11413;BME280;5762;43.256;26.960;2023-09-19T05:58:41;99841.51;;;16.60;100.00
11413;BME280;5762;43.256;26.960;2023-09-19T06:01:11;99841.44;;;16.68;100.00
11413;BME280;5762;43.256;26.960;2023-09-19T06:03:39;99843.03;;;16.69;100.00
11413;BME280;5762;43.256;26.960;2023-09-19T06:06:08;99848.73;;;16.70;100.00
11413;BME280;5762;43.256;26.960;2023-09-19T06:08:37;99840.80;;;16.78;100.00
11413;BME280;5762;43.256;26.960;2023-09-19T06:11:06;99838.55;;;16.86;100.00
11413;BME280;5762;43.256;26.960;2023-09-19T06:13:35;99831.27;;;16.90;100.00
11413;BME280;5762;43.256;26.960;2023-09-19T06:16:04;99826.05;;;16.97;100.00
11413;BME280;5762;43.256;26.960;2023-09-19T06:18:33;99827.31;;;17.12;100.00
11413;BME280;5762;43.256;26.960;2023-09-19T06:21:02;99833.45;;;17.08;100.00
11413;BME280;5762;43.256;26.960;2023-09-19T06:23:31;99836.44;;;17.16;100.00
11413;BME280;5762;43.256;26.960;2023-09-19T06:26:00;99837.72;;;17.30;100.00
11413;BME280;5762;43.256;26.960;2023-09-19T06:28:29;99839.09;;;17.30;100.00
11413;BME280;5762;43.256;26.960;2023-09-19T06:30:58;99835.20;;;17.43;100.00
11413;BME280;5762;43.256;26.960;2023-09-19T06:33:27;99831.56;;;17.58;100.00
11413;BME280;5762;43.256;26.960;2023-09-19T06:35:57;99832.94;;;17.64;100.00
11413;BME280;5762;43.256;26.960;2023-09-19T06:38:26;99824.05;;;17.73;100.00
11413;BME280;5762;43.256;26.960;2023-09-19T06:40:55;99817.08;;;17.82;100.00
11413;BME280;5762;43.256;26.960;2023-09-19T06:43:24;99819.59;;;17.93;100.00
11413;BME280;5762;43.256;26.960;2023-09-19T06:45:53;99818.56;;;17.91;100.00
11413;BME280;5762;43.256;26.960;2023-09-19T06:48:24;99814.95;;;18.15;100.00
11413;BME280;5762;43.256;26.960;2023-09-19T06:50:53;99817.30;;;18.35;100.00
11413;BME280;5762;43.256;26.960;2023-09-19T06:53:22;99814.95;;;18.49;100.00
11413;BME280;5762;43.256;26.960;2023-09-19T06:55:51;99812.86;;;18.64;100.00
11413;BME280;5762;43.256;26.960;2023-09-19T06:58:20;99814.33;;;18.68;100.00
11413;BME280;5762;43.256;26.960;2023-09-19T07:00:49;99819.31;;;18.72;100.00
11413;BME280;5762;43.256;26.960;2023-09-19T07:03:18;99818.52;;;18.71;100.00
11413;BME280;5762;43.256;26.960;2023-09-19T07:05:48;99821.36;;;18.75;100.00
11413;BME280;5762;43.256;26.960;2023-09-19T07:08:16;99820.95;;;18.89;100.00
11413;BME280;5762;43.256;26.960;2023-09-19T07:10:45;99816.80;;;18.95;100.00
11413;BME280;5762;43.256;26.960;2023-09-19T07:13:16;99820.19;;;19.04;100.00
11413;BME280;5762;43.256;26.960;2023-09-19T07:15:45;99826.68;;;19.21;100.00
11413;BME280;5762;43.256;26.960;2023-09-19T07:18:16;99824.61;;;19.24;100.00
11413;BME280;5762;43.256;26.960;2023-09-19T07:20:46;99827.89;;;19.30;100.00
11413;BME280;5762;43.256;26.960;2023-09-19T07:23:22;99825.12;;;19.46;100.00
11413;BME280;5762;43.256;26.960;2023-09-19T07:25:47;99823.81;;;19.81;100.00
11413;BME280;5762;43.256;26.960;2023-09-19T07:28:16;99816.92;;;20.16;100.00
11413;BME280;5762;43.256;26.960;2023-09-19T07:30:44;99821.36;;;20.30;100.00
11413;BME280;5762;43.256;26.960;2023-09-19T07:33:12;99824.18;;;20.33;100.00
11413;BME280;5762;43.256;26.960;2023-09-19T07:35:40;99826.58;;;20.45;100.00
11413;BME280;5762;43.256;26.960;2023-09-19T07:38:11;99822.97;;;20.60;100.00
11413;BME280;5762;43.256;26.960;2023-09-19T07:40:40;99820.97;;;20.80;100.00
11413;BME280;5762;43.256;26.960;2023-09-19T07:43:08;99815.27;;;21.11;100.00
11413;BME280;5762;43.256;26.960;2023-09-19T07:45:37;99828.25;;;21.33;100.00
11413;BME280;5762;43.256;26.960;2023-09-19T07:48:06;99839.56;;;21.64;100.00
11413;BME280;5762;43.256;26.960;2023-09-19T07:50:35;99907.45;;;21.76;100.00
11413;BME280;5762;43.256;26.960;2023-09-19T07:53:04;99941.73;;;22.01;100.00
11413;BME280;5762;43.256;26.960;2023-09-19T07:55:32;99948.41;;;22.27;100.00
11413;BME280;5762;43.256;26.960;2023-09-19T07:58:01;99940.66;;;22.49;100.00
11413;BME280;5762;43.256;26.960;2023-09-19T08:00:31;99929.48;;;22.55;100.00
11413;BME280;5762;43.256;26.960;2023-09-19T08:03:00;99914.92;;;22.71;100.00
11413;BME280;5762;43.256;26.960;2023-09-19T08:05:28;99908.41;;;22.70;100.00
11413;BME280;5762;43.256;26.960;2023-09-19T08:07:57;99897.47;;;22.94;100.00
11413;BME280;5762;43.256;26.960;2023-09-19T08:10:26;99892.91;;;23.09;100.00
11413;BME280;5762;43.256;26.960;2023-09-19T08:12:55;99884.95;;;23.24;100.00
11413;BME280;5762;43.256;26.960;2023-09-19T08:15:24;99874.02;;;23.34;100.00
11413;BME280;5762;43.256;26.960;2023-09-19T08:17:53;99862.02;;;23.16;100.00
11413;BME280;5762;43.256;26.960;2023-09-19T08:20:22;99858.34;;;23.46;100.00
11413;BME280;5762;43.256;26.960;2023-09-19T08:22:53;99858.69;;;23.40;100.00
11413;BME280;5762;43.256;26.960;2023-09-19T08:25:21;99859.55;;;23.72;100.00
11413;BME280;5762;43.256;26.960;2023-09-19T08:27:50;99856.52;;;23.88;100.00
11413;BME280;5762;43.256;26.960;2023-09-19T08:30:19;99852.20;;;23.97;100.00
11413;BME280;5762;43.256;26.960;2023-09-19T08:32:48;99852.08;;;24.07;100.00
11413;BME280;5762;43.256;26.960;2023-09-19T08:35:17;99854.55;;;23.88;100.00
11413;BME280;5762;43.256;26.960;2023-09-19T08:37:46;99857.90;;;23.88;100.00
11413;BME280;5762;43.256;26.960;2023-09-19T08:40:15;99845.89;;;23.97;100.00
11413;BME280;5762;43.256;26.960;2023-09-19T08:42:48;99850.19;;;23.87;100.00
11413;BME280;5762;43.256;26.960;2023-09-19T08:45:20;99838.34;;;23.87;100.00
11413;BME280;5762;43.256;26.960;2023-09-19T08:50:27;99820.34;;;23.83;100.00
11413;BME280;5762;43.256;26.960;2023-09-19T08:52:59;99819.22;;;23.95;100.00
11413;BME280;5762;43.256;26.960;2023-09-19T08:55:27;99822.95;;;23.93;100.00
11413;BME280;5762;43.256;26.960;2023-09-19T08:57:59;99815.66;;;23.94;100.00
11413;BME280;5762;43.256;26.960;2023-09-19T09:00:26;99817.81;;;24.26;100.00
11413;BME280;5762;43.256;26.960;2023-09-19T09:02:55;99818.16;;;24.17;100.00
11413;BME280;5762;43.256;26.960;2023-09-19T09:05:25;99816.63;;;24.27;100.00
11413;BME280;5762;43.256;26.960;2023-09-19T09:07:54;99820.21;;;23.96;100.00
11413;BME280;5762;43.256;26.960;2023-09-19T09:10:24;99815.44;;;24.24;100.00
11413;BME280;5762;43.256;26.960;2023-09-19T09:12:52;99823.44;;;24.44;100.00
11413;BME280;5762;43.256;26.960;2023-09-19T09:15:21;99820.93;;;24.66;100.00
11413;BME280;5762;43.256;26.960;2023-09-19T09:17:50;99828.35;;;25.00;100.00
11413;BME280;5762;43.256;26.960;2023-09-19T09:20:19;99846.41;;;25.28;100.00
11413;BME280;5762;43.256;26.960;2023-09-19T09:22:51;99848.90;;;24.92;100.00
11413;BME280;5762;43.256;26.960;2023-09-19T09:25:20;99843.56;;;24.93;100.00
11413;BME280;5762;43.256;26.960;2023-09-19T09:28:01;99842.61;;;25.09;100.00
11413;BME280;5762;43.256;26.960;2023-09-19T09:30:33;99835.68;;;25.05;100.00
11413;BME280;5762;43.256;26.960;2023-09-19T09:33:08;99831.50;;;24.95;100.00
11413;BME280;5762;43.256;26.960;2023-09-19T09:35:37;99823.55;;;24.79;100.00
11413;BME280;5762;43.256;26.960;2023-09-19T09:38:06;99824.57;;;24.91;100.00
11413;BME280;5762;43.256;26.960;2023-09-19T09:40:46;99823.23;;;25.09;100.00
11413;BME280;5762;43.256;26.960;2023-09-19T09:43:11;99827.39;;;25.45;100.00
11413;BME280;5762;43.256;26.960;2023-09-19T09:45:35;99831.75;;;25.53;100.00
11413;BME280;5762;43.256;26.960;2023-09-19T09:48:04;99834.71;;;25.82;100.00
11413;BME280;5762;43.256;26.960;2023-09-19T09:50:33;99842.38;;;26.00;100.00
11413;BME280;5762;43.256;26.960;2023-09-19T09:53:28;99839.98;;;26.10;100.00
11413;BME280;5762;43.256;26.960;2023-09-19T09:56:07;99827.77;;;25.96;100.00
11413;BME280;5762;43.256;26.960;2023-09-19T09:58:36;99838.03;;;25.99;100.00
11413;BME280;5762;43.256;26.960;2023-09-19T10:01:06;99834.65;;;26.07;100.00
11413;BME280;5762;43.256;26.960;2023-09-19T10:03:37;99843.89;;;26.37;100.00
11413;BME280;5762;43.256;26.960;2023-09-19T10:06:12;99842.85;;;26.50;100.00
11413;BME280;5762;43.256;26.960;2023-09-19T10:08:58;99845.36;;;26.66;100.00
11413;BME280;5762;43.256;26.960;2023-09-19T10:11:43;99841.84;;;26.55;100.00
11413;BME280;5762;43.256;26.960;2023-09-19T10:14:09;99839.17;;;26.70;100.00
11413;BME280;5762;43.256;26.960;2023-09-19T10:16:47;99832.58;;;26.80;100.00
11413;BME280;5762;43.256;26.960;2023-09-19T10:19:21;99843.81;;;26.95;100.00
11413;BME280;5762;43.256;26.960;2023-09-19T10:21:50;99839.86;;;26.96;100.00
11413;BME280;5762;43.256;26.960;2023-09-19T10:24:22;99837.29;;;26.90;100.00
11413;BME280;5762;43.256;26.960;2023-09-19T10:26:52;99835.94;;;26.83;100.00
11413;BME280;5762;43.256;26.960;2023-09-19T10:29:21;99822.22;;;26.87;100.00
11413;BME280;5762;43.256;26.960;2023-09-19T10:31:52;99814.44;;;27.01;100.00
11413;BME280;5762;43.256;26.960;2023-09-19T10:34:21;99812.52;;;27.17;100.00
11413;BME280;5762;43.256;26.960;2023-09-19T10:36:50;99812.45;;;27.01;100.00
11413;BME280;5762;43.256;26.960;2023-09-19T10:39:19;99807.58;;;27.13;100.00
11413;BME280;5762;43.256;26.960;2023-09-19T10:41:51;99804.35;;;26.95;100.00
11413;BME280;5762;43.256;26.960;2023-09-19T10:44:23;99806.53;;;26.96;100.00
11413;BME280;5762;43.256;26.960;2023-09-19T10:46:55;99797.97;;;27.24;100.00
11413;BME280;5762;43.256;26.960;2023-09-19T10:49:25;99798.30;;;27.33;100.00
11413;BME280;5762;43.256;26.960;2023-09-19T10:51:54;99796.56;;;27.28;100.00
11413;BME280;5762;43.256;26.960;2023-09-19T10:54:23;99788.44;;;27.25;100.00
11413;BME280;5762;43.256;26.960;2023-09-19T10:56:53;99779.53;;;26.93;100.00
11413;BME280;5762;43.256;26.960;2023-09-19T10:59:22;99770.86;;;26.84;100.00
11413;BME280;5762;43.256;26.960;2023-09-19T11:01:52;99769.14;;;27.04;100.00
11413;BME280;5762;43.256;26.960;2023-09-19T11:04:26;99770.84;;;27.17;100.00
11413;BME280;5762;43.256;26.960;2023-09-19T11:07:07;99763.83;;;27.01;100.00
11413;BME280;5762;43.256;26.960;2023-09-19T11:09:47;99765.82;;;27.01;100.00
11413;BME280;5762;43.256;26.960;2023-09-19T11:14:59;99757.17;;;27.59;100.00
11413;BME280;5762;43.256;26.960;2023-09-19T11:30:41;99741.11;;;27.92;100.00
11413;BME280;5762;43.256;26.960;2023-09-19T11:33:16;99742.02;;;27.82;100.00
11413;BME280;5762;43.256;26.960;2023-09-19T11:36:01;99746.03;;;27.78;100.00
11413;BME280;5762;43.256;26.960;2023-09-19T11:39:13;99728.70;;;27.66;100.00
11413;BME280;5762;43.256;26.960;2023-09-19T11:46:24;99737.09;;;27.78;100.00
11413;BME280;5762;43.256;26.960;2023-09-19T11:48:52;99729.57;;;27.75;100.00
11413;BME280;5762;43.256;26.960;2023-09-19T11:51:22;99721.97;;;27.98;100.00
11413;BME280;5762;43.256;26.960;2023-09-19T11:53:55;99716.95;;;28.16;100.00
11413;BME280;5762;43.256;26.960;2023-09-19T11:56:24;99713.88;;;28.07;100.00
11413;BME280;5762;43.256;26.960;2023-09-19T11:58:54;99718.10;;;27.88;100.00
11413;BME280;5762;43.256;26.960;2023-09-19T12:01:28;99713.20;;;27.99;100.00
11413;BME280;5762;43.256;26.960;2023-09-19T12:03:54;99711.13;;;28.64;100.00
11413;BME280;5762;43.256;26.960;2023-09-19T12:06:24;99713.05;;;28.94;100.00
11413;BME280;5762;43.256;26.960;2023-09-19T12:08:53;99717.73;;;29.01;100.00
11413;BME280;5762;43.256;26.960;2023-09-19T12:11:22;99711.34;;;29.24;100.00
11413;BME280;5762;43.256;26.960;2023-09-19T12:13:51;99712.25;;;29.29;100.00
11413;BME280;5762;43.256;26.960;2023-09-19T12:16:20;99706.07;;;29.29;100.00
11413;BME280;5762;43.256;26.960;2023-09-19T12:18:50;99709.34;;;29.24;100.00
11413;BME280;5762;43.256;26.960;2023-09-19T12:21:29;99700.98;;;29.24;100.00
11413;BME280;5762;43.256;26.960;2023-09-19T12:24:04;99703.59;;;29.35;100.00
11413;BME280;5762;43.256;26.960;2023-09-19T12:26:43;99702.50;;;29.17;100.00
11413;BME280;5762;43.256;26.960;2023-09-19T12:29:21;99699.91;;;29.42;100.00
11413;BME280;5762;43.256;26.960;2023-09-19T12:31:48;99696.89;;;29.52;100.00
11413;BME280;5762;43.256;26.960;2023-09-19T12:34:29;99699.17;;;29.69;100.00
11413;BME280;5762;43.256;26.960;2023-09-19T12:37:05;99699.62;;;29.95;100.00
11413;BME280;5762;43.256;26.960;2023-09-19T12:39:34;99694.56;;;29.71;100.00
11413;BME280;5762;43.256;26.960;2023-09-19T12:42:03;99688.94;;;29.43;100.00
11413;BME280;5762;43.256;26.960;2023-09-19T12:44:32;99691.02;;;29.47;100.00
11413;BME280;5762;43.256;26.960;2023-09-19T12:47:08;99686.89;;;29.00;100.00
11413;BME280;5762;43.256;26.960;2023-09-19T12:50:04;99683.98;;;29.07;100.00
11413;BME280;5762;43.256;26.960;2023-09-19T12:52:07;99690.19;;;29.26;100.00
11413;BME280;5762;43.256;26.960;2023-09-19T12:54:39;99684.15;;;29.43;100.00
11413;BME280;5762;43.256;26.960;2023-09-19T12:57:08;99688.91;;;29.74;100.00
11413;BME280;5762;43.256;26.960;2023-09-19T12:59:36;99689.02;;;29.79;100.00
11413;BME280;5762;43.256;26.960;2023-09-19T13:02:05;99681.80;;;29.50;100.00
11413;BME280;5762;43.256;26.960;2023-09-19T13:04:34;99685.89;;;29.22;100.00
11413;BME280;5762;43.256;26.960;2023-09-19T13:07:03;99675.02;;;29.08;100.00
11413;BME280;5762;43.256;26.960;2023-09-19T13:09:32;99678.17;;;29.10;100.00
11413;BME280;5762;43.256;26.960;2023-09-19T13:12:02;99680.60;;;28.81;100.00
11413;BME280;5762;43.256;26.960;2023-09-19T13:14:32;99682.23;;;28.78;100.00
11413;BME280;5762;43.256;26.960;2023-09-19T13:17:01;99673.83;;;28.70;100.00
11413;BME280;5762;43.256;26.960;2023-09-19T13:19:43;99670.99;;;28.74;100.00
11413;BME280;5762;43.256;26.960;2023-09-19T13:25:14;99668.02;;;28.73;100.00
11413;BME280;5762;43.256;26.960;2023-09-19T13:27:40;99659.99;;;29.01;100.00
11413;BME280;5762;43.256;26.960;2023-09-19T13:30:09;99657.83;;;29.32;100.00
11413;BME280;5762;43.256;26.960;2023-09-19T13:32:38;99658.07;;;29.30;100.00
11413;BME280;5762;43.256;26.960;2023-09-19T13:35:07;99655.30;;;29.42;100.00
11413;BME280;5762;43.256;26.960;2023-09-19T13:37:40;99659.72;;;29.59;100.00
11413;BME280;5762;43.256;26.960;2023-09-19T13:40:08;99657.56;;;29.47;100.00
11413;BME280;5762;43.256;26.960;2023-09-19T13:42:38;99658.69;;;29.41;100.00